Latest Coastal Weather Observations for Cape Leeuwin

IDW60701

Issued at 12:35 am WST Wednesday 22 October 2014 (issued every 10 minutes, with the page automatically refreshed every 10 minutes)

About coastal observations | Map of coastal stations | Coastal observations for WA | Marine services | Other Formats
Station Details ID: 009518 Name: CAPE LEEUWIN Lat: -34.37 Lon: 115.14 Height: 13.0 m
Data from the previous 72 hours. | See also: Recent months at Cape Leeuwin
Date/Time
WST
Temp

°C
Wind Pressure Rain
since 9am
mm
Weather Cloud Vis
km
Sea
Height
m
Swell
Dir
 
Speed
knots
Gust
knots
hPa Trend Height
m
Period
s
Dir
22/12:30am 15.0 E 26 30 1019.4 - 0.0 - - - - - - -
22/12:00am 15.5 E 25 31 1019.8 - 0.0 - - - - - - -
 
Date/Time
WST
Temp

°C
Wind Pressure Rain
since 9am
mm
Weather Cloud Vis
km
Sea
Height
m
Swell
Dir
 
Speed
knots
Gust
knots
hPa Trend Height
m
Period
s
Dir
21/11:30pm 15.5 E 23 29 1020.4 - 0.0 - - - - - - -
21/11:00pm 15.7 E 25 30 1020.2 - 0.0 - - - - - - -
21/10:30pm 16.2 E 25 30 1020.7 - 0.0 - - - - - - -
21/10:00pm 16.5 E 27 30 1020.8 - 0.0 - - - - - - -
21/09:30pm 16.6 ESE 27 31 1021.4 - 0.0 - - - - - - -
21/09:00pm 17.0 ESE 26 30 1021.6 - 0.0 - - - - - - -
21/08:30pm 17.0 ESE 22 27 1022.0 - 0.0 - - - - - - -
21/08:00pm 17.0 ESE 20 25 1022.1 - 0.0 - - - - - - -
21/07:30pm 16.9 ESE 21 26 1021.7 - 0.0 - - - - - - -
21/07:00pm 16.9 SE 19 24 1021.5 - 0.0 - - - - - - -
21/06:30pm 16.9 SE 17 22 1021.6 - 0.0 - - - - - - -
21/06:00pm 16.9 SE 16 20 1021.7 - 0.0 - - - - - - -
21/05:30pm 17.1 SE 15 19 1021.5 - 0.0 - - - - - - -
21/05:00pm 17.4 SE 15 18 1021.2 - 0.0 - - - - - - -
21/04:30pm 17.9 SE 13 16 1021.6 - 0.0 - - - - - - -
21/04:00pm 17.8 SE 12 15 1021.5 - 0.0 - - - - - - -
21/03:30pm 18.1 SE 10 13 1021.8 - 0.0 - - - - - - -
21/03:00pm 18.1 SE 9 12 1022.2 - 0.0 - - - - - - -
21/02:30pm 18.7 ESE 10 13 1022.1 - 0.0 - - - - - - -
21/02:00pm 19.3 ESE 11 12 1022.4 - 0.0 - - - - - - -
21/01:30pm 19.7 ESE 9 11 1022.7 - 0.0 - - - - - - -
21/01:00pm 19.0 E 10 12 1022.8 - 0.0 - - - - - - -
21/12:30pm 18.4 E 9 11 1023.2 - 0.0 - - - - - - -
21/12:00pm 18.4 E 9 12 1022.9 - 0.0 - - - - - - -
21/11:30am 18.3 E 10 13 1023.1 - 0.0 - - - - - - -
21/11:00am 17.8 E 10 12 1023.2 - 0.0 - - - - - - -
21/10:30am 18.1 E 10 12 1023.2 - 0.0 - - - - - - -
21/10:00am 16.9 E 9 12 1023.2 - 0.0 - - - - - - -
21/09:30am 17.2 E 7 10 1023.3 - 0.0 - - - - - - -
21/09:00am 17.5 E 6 8 1023.2 - 0.2 - - - - - - -
21/08:30am 16.7 E 6 8 1023.0 - 0.2 - - - - - - -
21/08:00am 16.7 NE 5 7 1022.8 - 0.2 - - - - - - -
21/07:30am 15.7 NE 6 7 1022.6 - 0.2 - - - - - - -
21/07:00am 14.2 NNE 7 8 1022.1 - 0.2 - - - - - - -
21/06:30am 13.4 NNE 6 7 1021.9 - 0.2 - - - - - - -
21/06:00am 12.8 ENE 4 5 1021.8 - 0.2 - - - - - - -
21/05:30am 12.9 ENE 2 4 1021.7 - 0.2 - - - - - - -
21/05:00am 13.5 SSW 1 5 1021.4 - 0.2 - - - - - - -
21/04:30am 13.3 SSW 4 5 1021.1 - 0.2 - - - - - - -
21/04:00am 13.3 SSW 5 7 1020.9 - 0.2 - - - - - - -
21/03:30am 13.1 SSW 5 6 1020.7 - 0.2 - - - - - - -
21/03:00am 13.2 S 5 6 1020.7 - 0.2 - - - - - - -
21/02:30am 13.5 SSW 6 7 1020.5 - 0.2 - - - - - - -
21/02:00am 13.7 SW 7 8 1020.4 - 0.2 - - - - - - -
21/01:30am 13.4 SSW 5 7 1020.5 - 0.2 - - - - - - -
21/01:00am 13.5 SSW 5 8 1020.4 - 0.2 - - - - - - -
21/12:30am 13.6 S 5 6 1020.4 - 0.2 - - - - - - -
21/12:00am 13.4 S 5 7 1020.4 - 0.2 - - - - - - -
 
Date/Time
WST
Temp

°C
Wind Pressure Rain
since 9am
mm
Weather Cloud Vis
km
Sea
Height
m
Swell
Dir
 
Speed
knots
Gust
knots
hPa Trend Height
m
Period
s
Dir
20/11:30pm 13.4 S 6 9 1020.5 - 0.2 - - - - - - -
20/11:00pm 13.5 S 5 7 1020.5 - 0.2 - - - - - - -
20/10:30pm 13.9 S 7 10 1020.7 - 0.2 - - - - - - -
20/10:00pm 14.1 S 8 11 1020.8 - 0.2 - - - - - - -
20/09:30pm 14.7 S 8 11 1020.8 - 0.2 - - - - - - -
20/09:00pm 14.4 SSW 8 11 1020.8 - 0.2 - - - - - - -
20/08:30pm 14.5 SW 8 12 1020.9 - 0.2 - - - - - - -
20/08:00pm 15.2 SW 13 17 1021.1 - 0.2 - - - - - - -
20/07:30pm 14.6 SW 11 14 1020.4 - 0.2 - - - - - - -
20/07:00pm 14.5 SSW 11 13 1020.3 - 0.2 - - - - - - -
20/06:30pm 15.1 SW 13 16 1020.3 - 0.2 - - - - - - -
20/06:00pm 15.3 SW 12 17 1019.9 - 0.2 - - - - - - -
20/05:30pm 16.0 SW 12 15 1019.6 - 0.2 - - - - - - -
20/05:00pm 16.2 SW 14 16 1019.5 - 0.2 - - - - - - -
20/04:30pm 17.6 SW 15 20 1019.3 - 0.2 - - - - - - -
20/04:00pm 17.3 SW 15 18 1019.1 - 0.2 - - - - - - -
20/03:30pm 17.0 SW 15 18 1019.1 - 0.2 - - - - - - -
20/03:00pm 17.4 SW 17 20 1018.9 - 0.2 - - - - - - -
20/02:30pm 17.0 SW 14 17 1018.8 - 0.2 - - - - - - -
20/02:00pm 16.7 SW 17 21 1018.5 - 0.2 - - - - - - -
20/01:30pm 18.5 SW 14 17 1018.4 - 0.2 - - - - - - -
20/01:00pm 17.5 SW 15 18 1018.4 - 0.2 - - - - - - -
20/12:30pm 16.2 SSW 15 17 1018.3 - 0.2 - - - - - - -
20/12:00pm 16.1 SSW 13 16 1018.3 - 0.2 - - - - - - -
20/11:30am 15.9 WSW 10 14 1018.2 - 0.2 - - - - - - -
20/11:00am 16.6 SW 15 18 1018.2 - 0.2 - - - - - - -
20/10:30am 18.2 SSW 12 16 1018.1 - 0.0 - - - - - - -
20/10:00am 18.0 S 11 14 1017.9 - 0.0 - - - - - - -
20/09:30am 16.9 SSW 15 19 1018.1 - 0.0 - - - - - - -
20/09:00am 17.0 S 13 17 1017.9 - 2.6 - - - - - - -
20/08:30am 15.7 S 14 17 1017.9 - 2.6 - - - - - - -
20/08:00am 15.5 S 14 19 1017.9 - 2.6 - - - - - - -
20/07:30am 15.4 S 16 22 1017.8 - 2.6 - - - - - - -
20/07:00am 15.1 S 17 22 1017.4 - 2.6 - - - - - - -
20/06:30am 14.7 S 16 21 1017.2 - 2.6 - - - - - - -
20/06:00am 14.2 S 17 23 1017.0 - 2.6 - - - - - - -
20/05:30am 14.3 S 18 23 1016.5 - 2.6 - - - - - - -
20/05:00am 14.3 S 19 23 1016.3 - 2.6 - - - - - - -
20/04:30am 14.1 S 18 23 1016.1 - 2.6 - - - - - - -
20/04:00am 13.9 S 18 23 1016.1 - 2.6 - - - - - - -
20/03:30am 13.9 S 19 25 1016.2 - 2.6 - - - - - - -
20/03:00am 13.7 S 19 23 1016.7 - 2.0 Rain - - - - - -
20/02:53am 13.2 S 20 24 1016.7 - 1.8 - - - - - - -
20/02:39am 13.8 SSE 22 25 1016.6 - 1.2 - - - - - - -
20/02:30am 14.2 S 17 22 1016.6 - 1.2 - - - - - - -
20/02:00am 14.0 S 18 24 1016.6 - 0.8 - - - - - - -
20/01:30am 14.2 S 17 23 1016.6 - 0.8 - - - - - - -
20/01:00am 14.1 SSE 19 25 1017.0 - 0.4 - - - - - - -
20/12:30am 14.1 S 15 18 1017.4 - 0.4 - - - - - - -
20/12:00am 14.7 SSE 19 25 1017.8 - 0.0 - - - - - - -
 
Date/Time
WST
Temp

°C
Wind Pressure Rain
since 9am
mm
Weather Cloud Vis
km
Sea
Height
m
Swell
Dir
 
Speed
knots
Gust
knots
hPa Trend Height
m
Period
s
Dir
19/11:30pm 15.3 SSE 18 22 1017.8 - 0.0 - - - - - - -
19/11:09pm 14.6 SSE 17 27 1018.0 - 0.0 - - - - - - -
19/11:00pm 14.6 SE 22 27 1018.0 - 0.0 - - - - - - -
19/10:30pm 15.3 SSE 17 21 1018.1 - 0.0 - - - - - - -
19/10:00pm 14.7 SSE 21 26 1018.3 - 0.0 - - - - - - -
19/09:30pm 15.0 SE 21 29 1018.4 - 0.0 - - - - - - -
19/09:00pm 14.7 SSE 20 25 1018.7 - 0.0 - - - - - - -
19/08:30pm 15.3 SE 19 25 1018.5 - 0.0 - - - - - - -
19/08:00pm 15.1 SE 20 25 1018.4 - 0.0 - - - - - - -
19/07:30pm 14.9 SE 21 26 1018.2 - 0.0 - - - - - - -
19/07:00pm 15.0 SE 20 26 1018.1 - 0.0 - - - - - - -
19/06:30pm 14.7 SE 21 26 1018.2 - 0.0 - - - - - - -
19/06:00pm 15.1 SE 21 29 1018.4 - 0.0 - - - - - - -
19/05:30pm 15.2 ESE 23 30 1018.2 - 0.0 - - - - - - -
19/05:00pm 15.5 ESE 24 30 1018.2 - 0.0 - - - - - - -
19/04:30pm 15.3 SE 22 28 1018.4 - 0.0 - - - - - - -
19/04:00pm 15.9 ESE 21 26 1018.2 - 0.0 - - - - - - -
19/03:30pm 16.3 ESE 21 26 1018.0 - 0.0 - - - - - - -
19/03:00pm 16.7 SE 21 26 1018.0 - 0.0 - - - - - - -
19/02:30pm 16.5 ESE 22 26 1018.0 - 0.0 - - - - - - -
19/02:00pm 16.9 ESE 21 27 1018.2 - 0.0 - - - - - - -
19/01:30pm 16.5 ESE 23 29 1018.4 - 0.0 - - - - - - -
19/01:00pm 17.0 ESE 23 29 1018.6 - 0.0 - - - - - - -
19/12:30pm 16.5 ESE 25 33 1018.6 - 0.0 - - - - - - -
19/12:00pm 17.4 ESE 24 28 1018.7 - 0.0 - - - - - - -
19/11:30am 17.2 ESE 25 31 1019.0 - 0.0 - - - - - - -
19/11:00am 17.0 ESE 25 31 1019.0 - 0.0 - - - - - - -
19/10:30am 16.4 ESE 25 30 1019.4 - 0.0 - - - - - - -
19/10:00am 15.9 ESE 25 31 1019.6 - 0.0 - - - - - - -
19/09:30am 16.5 ESE 25 31 1019.9 - 0.0 - - - - - - -
19/09:00am 15.8 ESE 27 33 1019.7 - 0.8 - - - - - - -
19/08:30am 15.8 ESE 27 33 1019.9 - 0.8 - - - - - - -
19/08:00am 15.5 ESE 27 32 1020.0 - 0.8 - - - - - - -
19/07:30am 15.8 E 28 33 1020.0 - 0.8 - - - - - - -
19/07:00am 14.8 E 28 32 1020.1 - 0.8 - - - - - - -
19/06:30am 14.7 ESE 26 31 1020.0 - 0.8 - - - - - - -
19/06:00am 14.0 ESE 26 31 1019.7 - 0.8 - - - - - - -
19/05:30am 14.1 ESE 24 30 1019.4 - 0.8 - - - - - - -
19/05:00am 14.0 ESE 29 34 1019.4 - 0.8 - - - - - - -
19/04:30am 14.5 ESE 29 37 1019.5 - 0.8 - - - - - - -
19/04:00am 14.7 ESE 30 34 1019.3 - 0.8 - - - - - - -
19/03:30am 14.8 ESE 27 35 1019.4 - 0.8 - - - - - - -
19/03:00am 14.7 ESE 26 33 1019.6 - 0.8 - - - - - - -
19/02:30am 14.5 ESE 26 33 1019.5 - 0.8 - - - - - - -
19/02:00am 14.4 ESE 30 35 1019.6 - 0.8 - - - - - - -
19/01:30am 14.5 ESE 29 35 1019.7 - 0.8 - - - - - - -
19/01:00am 14.8 ESE 27 33 1019.9 - 0.8 - - - - - - -

Other Formats:

Comma delimited format used in spreadsheet applications
http://www.bom.gov.au/fwo/IDW60701/IDW60701.94601.axf

JavaScript Object Notation format (JSON) in row-major order
http://www.bom.gov.au/fwo/IDW60701/IDW60701.94601.json